Time;durP1;ratioP1;P1;durP2;ratioP2;P2;SDS_P1;SDS_P2;PMS_P1;PMS_P2;Temp;Humidity;BMP_temperature;BMP_pressure;BME280_temperature;BME280_humidity;BME280_pressure;Samples;Min_cycle;Max_cycle;Signal;HPM_P1;HPM_P2
2023/05/08 00:00:28;;;;;;;1.93;1.20;;;;;;;;;;5053742;27;88690;-49
2023/05/08 00:02:56;;;;;;;1.60;1.50;;;;;;;;;;5058474;27;87039;-49
2023/05/08 00:05:25;;;;;;;3.77;1.47;;;;;;;;;;5044996;27;87029;-48
2023/05/08 00:08:00;;;;;;;1.73;1.17;;;;;;;;;;5052689;27;87929;-48
2023/05/08 00:10:28;;;;;;;6.77;2.00;;;;;;;;;;5061985;27;87825;-49
2023/05/08 00:12:58;;;;;;;1.73;1.10;;;;;;;;;;5062208;27;87109;-48
2023/05/08 00:15:26;;;;;;;2.73;1.53;;;;;;;;;;5048017;27;86899;-48
2023/05/08 00:17:54;;;;;;;5.60;1.50;;;;;;;;;;5058527;27;90123;-48
2023/05/08 00:20:23;;;;;;;1.63;1.20;;;;;;;;;;5049690;27;88804;-49
2023/05/08 00:22:51;;;;;;;2.70;1.57;;;;;;;;;;5057171;27;86899;-48
2023/05/08 00:25:19;;;;;;;1.97;1.23;;;;;;;;;;5055593;27;88056;-49
2023/05/08 00:27:48;;;;;;;1.60;1.30;;;;;;;;;;5041510;27;88146;-49
2023/05/08 00:30:18;;;;;;;3.07;1.30;;;;;;;;;;5056039;27;87715;-49
2023/05/08 00:32:46;;;;;;;1.33;1.10;;;;;;;;;;5055333;27;86978;-48
2023/05/08 00:35:15;;;;;;;2.30;1.50;;;;;;;;;;5057516;27;86283;-49
2023/05/08 00:37:43;;;;;;;2.57;1.27;;;;;;;;;;5052289;27;89212;-48
2023/05/08 00:40:12;;;;;;;3.07;1.77;;;;;;;;;;5048983;27;88339;-49
2023/05/08 00:42:40;;;;;;;0.90;0.90;;;;;;;;;;5053182;27;88137;-49
2023/05/08 00:45:09;;;;;;;1.37;1.13;;;;;;;;;;5065050;27;87036;-48
2023/05/08 00:47:39;;;;;;;3.77;1.30;;;;;;;;;;5065190;27;89084;-48
2023/05/08 00:50:08;;;;;;;3.13;1.50;;;;;;;;;;5064810;27;87811;-49
2023/05/08 00:52:36;;;;;;;0.90;0.83;;;;;;;;;;5064925;27;86968;-48
2023/05/08 00:55:05;;;;;;;2.20;1.20;;;;;;;;;;5054243;27;86926;-49
2023/05/08 00:57:34;;;;;;;1.77;1.63;;;;;;;;;;5044742;27;88177;-49
2023/05/08 01:00:03;;;;;;;1.20;1.03;;;;;;;;;;5064959;27;88606;-49
2023/05/08 01:02:31;;;;;;;1.30;1.20;;;;;;;;;;5085297;27;87051;-49
2023/05/08 01:05:01;;;;;;;1.67;1.13;;;;;;;;;;5085173;27;87048;-49
2023/05/08 01:07:29;;;;;;;2.00;1.53;;;;;;;;;;5084919;27;90044;-49
2023/05/08 01:09:57;;;;;;;2.73;1.57;;;;;;;;;;5085216;27;88880;-49
2023/05/08 01:12:27;;;;;;;1.17;1.07;;;;;;;;;;5056846;27;86962;-49
2023/05/08 01:14:58;;;;;;;1.87;1.03;;;;;;;;;;5045123;27;88306;-49
2023/05/08 01:17:29;;;;;;;1.73;1.47;;;;;;;;;;5050050;27;88261;-49
2023/05/08 01:20:09;;;;;;;1.30;1.07;;;;;;;;;;5044107;27;87728;-49
2023/05/08 01:22:54;;;;;;;1.77;1.00;;;;;;;;;;5044796;27;87101;-49
2023/05/08 01:25:47;;;;;;;2.37;1.40;;;;;;;;;;5052741;27;86281;-49
2023/05/08 01:28:22;;;;;;;1.83;1.70;;;;;;;;;;5055911;27;88923;-49
2023/05/08 01:30:59;;;;;;;1.73;1.50;;;;;;;;;;5043696;28;89097;-49
2023/05/08 01:33:31;;;;;;;2.40;1.43;;;;;;;;;;5044566;27;88033;-49
2023/05/08 01:35:59;;;;;;;1.50;1.07;;;;;;;;;;5045015;27;87126;-49
2023/05/08 01:38:31;;;;;;;2.50;1.20;;;;;;;;;;5052932;27;88945;-49
2023/05/08 01:41:01;;;;;;;2.00;1.30;;;;;;;;;;5050568;27;88867;-49
2023/05/08 01:43:31;;;;;;;1.40;1.20;;;;;;;;;;5051683;27;87100;-49
2023/05/08 01:46:00;;;;;;;2.47;1.83;;;;;;;;;;5049261;27;86807;-49
2023/05/08 01:48:31;;;;;;;1.70;1.20;;;;;;;;;;5054076;27;88929;-49
2023/05/08 01:51:01;;;;;;;1.80;1.47;;;;;;;;;;5044191;27;87974;-49
2023/05/08 01:53:30;;;;;;;1.93;1.40;;;;;;;;;;5046782;27;87037;-49
2023/05/08 01:55:59;;;;;;;1.30;1.20;;;;;;;;;;5059568;27;87117;-48
2023/05/08 01:58:27;;;;;;;1.53;1.00;;;;;;;;;;5051732;27;90139;-48
2023/05/08 02:00:56;;;;;;;1.60;1.17;;;;;;;;;;5061421;27;89972;-48
2023/05/08 02:03:24;;;;;;;1.60;1.07;;;;;;;;;;5063161;27;86839;-49
2023/05/08 02:05:54;;;;;;;1.67;1.03;;;;;;;;;;5056938;27;87116;-49
2023/05/08 02:08:22;;;;;;;0.97;0.80;;;;;;;;;;5051978;27;89223;-48
2023/05/08 02:10:51;;;;;;;1.10;0.90;;;;;;;;;;5063687;27;88895;-49
2023/05/08 02:13:20;;;;;;;1.03;0.97;;;;;;;;;;5056873;27;87012;-49
2023/05/08 02:15:49;;;;;;;2.47;1.60;;;;;;;;;;5060997;27;86405;-49
2023/05/08 02:18:17;;;;;;;1.50;1.40;;;;;;;;;;5043422;27;89157;-49
2023/05/08 02:20:46;;;;;;;1.87;1.30;;;;;;;;;;5052989;27;88883;-49
2023/05/08 02:23:15;;;;;;;2.70;1.50;;;;;;;;;;5057356;27;88071;-49
2023/05/08 02:25:44;;;;;;;1.90;1.47;;;;;;;;;;5050899;27;86898;-49
2023/05/08 02:28:12;;;;;;;1.13;0.93;;;;;;;;;;5051598;27;88959;-49
2023/05/08 02:30:40;;;;;;;1.83;1.47;;;;;;;;;;5058800;27;87390;-49
2023/05/08 02:33:08;;;;;;;1.13;0.97;;;;;;;;;;5063277;27;89008;-49
2023/05/08 02:35:37;;;;;;;2.10;1.13;;;;;;;;;;5051064;27;87118;-48
2023/05/08 02:38:09;;;;;;;1.13;1.03;;;;;;;;;;5049578;27;88083;-49
2023/05/08 02:40:39;;;;;;;1.40;1.27;;;;;;;;;;5043905;27;88882;-48
2023/05/08 02:43:07;;;;;;;2.23;1.20;;;;;;;;;;5058490;27;87698;-50
2023/05/08 02:45:37;;;;;;;3.33;1.60;;;;;;;;;;5047921;27;87087;-49
2023/05/08 02:48:08;;;;;;;2.57;1.20;;;;;;;;;;5042332;27;90320;-49
2023/05/08 02:50:38;;;;;;;1.87;1.27;;;;;;;;;;5059051;27;88495;-49
2023/05/08 02:53:07;;;;;;;2.47;1.10;;;;;;;;;;5055259;27;86872;-49
2023/05/08 02:55:36;;;;;;;1.27;1.10;;;;;;;;;;5049438;27;87203;-49
2023/05/08 02:58:08;;;;;;;2.40;1.20;;;;;;;;;;5042276;27;87131;-49
2023/05/08 03:00:38;;;;;;;1.30;1.17;;;;;;;;;;5050132;27;87616;-49
2023/05/08 03:03:08;;;;;;;1.47;1.20;;;;;;;;;;5042999;27;86875;-49
2023/05/08 03:05:38;;;;;;;1.37;1.27;;;;;;;;;;5054507;27;86846;-49
2023/05/08 03:08:07;;;;;;;0.80;0.80;;;;;;;;;;5062722;27;89465;-49
2023/05/08 03:10:37;;;;;;;2.70;1.37;;;;;;;;;;5057816;27;88774;-49
2023/05/08 03:13:07;;;;;;;2.13;1.33;;;;;;;;;;5042407;27;87923;-49
2023/05/08 03:15:38;;;;;;;1.93;1.30;;;;;;;;;;5047708;27;87038;-49
2023/05/08 03:18:07;;;;;;;1.10;0.93;;;;;;;;;;5042150;27;89151;-49
2023/05/08 03:20:36;;;;;;;1.10;1.00;;;;;;;;;;5042383;27;89336;-49
2023/05/08 03:23:04;;;;;;;1.10;1.00;;;;;;;;;;5042490;27;86830;-49
2023/05/08 03:25:33;;;;;;;1.30;1.20;;;;;;;;;;5057347;27;86966;-49
2023/05/08 03:28:03;;;;;;;1.30;1.20;;;;;;;;;;5052234;27;87863;-49
2023/05/08 03:30:31;;;;;;;1.10;1.00;;;;;;;;;;5061614;27;86611;-48
2023/05/08 03:33:01;;;;;;;1.13;1.03;;;;;;;;;;5042004;27;86962;-49
2023/05/08 03:35:30;;;;;;;1.97;1.13;;;;;;;;;;5056145;27;87179;-48
2023/05/08 03:37:58;;;;;;;2.10;1.33;;;;;;;;;;5045098;27;90170;-49
2023/05/08 03:40:27;;;;;;;1.53;1.40;;;;;;;;;;5057174;27;89933;-49
2023/05/08 03:42:56;;;;;;;1.30;1.10;;;;;;;;;;5049781;27;86944;-49
2023/05/08 03:45:24;;;;;;;1.90;1.23;;;;;;;;;;5049439;27;87020;-49
2023/05/08 03:47:53;;;;;;;1.63;1.00;;;;;;;;;;5046223;27;88158;-49
2023/05/08 03:50:23;;;;;;;1.50;1.40;;;;;;;;;;5061860;27;87854;-49
2023/05/08 03:52:51;;;;;;;3.70;1.20;;;;;;;;;;5048881;27;87084;-48
2023/05/08 03:55:20;;;;;;;1.13;1.03;;;;;;;;;;5051519;27;86032;-49
2023/05/08 03:57:49;;;;;;;2.20;1.13;;;;;;;;;;5042047;27;89156;-49
2023/05/08 04:00:20;;;;;;;2.00;1.33;;;;;;;;;;5046246;27;87693;-49
2023/05/08 04:02:50;;;;;;;5.60;1.30;;;;;;;;;;5044842;27;87829;-49
2023/05/08 04:05:21;;;;;;;1.03;0.93;;;;;;;;;;5046788;27;86981;-48
2023/05/08 04:07:52;;;;;;;0.90;0.90;;;;;;;;;;5049231;27;89156;-49
2023/05/08 04:10:22;;;;;;;1.90;1.10;;;;;;;;;;5044984;27;87941;-49
2023/05/08 04:12:52;;;;;;;2.43;1.13;;;;;;;;;;5053332;27;87023;-49
2023/05/08 04:15:22;;;;;;;2.00;1.30;;;;;;;;;;5059401;27;87181;-49
2023/05/08 04:17:52;;;;;;;1.33;1.23;;;;;;;;;;5049299;27;88592;-49
2023/05/08 04:20:21;;;;;;;1.30;1.20;;;;;;;;;;5055949;27;87654;-49
2023/05/08 04:22:50;;;;;;;0.90;0.90;;;;;;;;;;5052587;27;87146;-49
2023/05/08 04:25:20;;;;;;;1.30;1.10;;;;;;;;;;5063432;27;87075;-49
2023/05/08 04:27:49;;;;;;;1.90;1.40;;;;;;;;;;5062649;27;89980;-49
2023/05/08 04:30:18;;;;;;;1.97;1.13;;;;;;;;;;5062747;27;88558;-49
2023/05/08 04:32:46;;;;;;;1.20;1.00;;;;;;;;;;5050181;27;87108;-49
2023/05/08 04:35:15;;;;;;;1.93;1.23;;;;;;;;;;5052166;27;87009;-48
2023/05/08 04:37:43;;;;;;;1.63;1.30;;;;;;;;;;5054447;27;88270;-49
2023/05/08 04:40:11;;;;;;;0.73;0.73;;;;;;;;;;5045004;28;88920;-49
2023/05/08 04:42:42;;;;;;;1.30;1.20;;;;;;;;;;5045858;27;87004;-49
2023/05/08 04:45:11;;;;;;;1.27;1.10;;;;;;;;;;5063539;27;86433;-48
2023/05/08 04:47:40;;;;;;;1.50;1.27;;;;;;;;;;5044934;27;88046;-48
2023/05/08 04:50:08;;;;;;;1.33;1.07;;;;;;;;;;5044658;27;87742;-49
2023/05/08 04:52:37;;;;;;;2.30;1.33;;;;;;;;;;5050843;27;88162;-49
2023/05/08 04:55:05;;;;;;;1.57;1.33;;;;;;;;;;5062396;27;87164;-48
2023/05/08 04:57:34;;;;;;;1.37;1.03;;;;;;;;;;5064591;27;89217;-49
2023/05/08 05:00:04;;;;;;;1.93;1.13;;;;;;;;;;5053128;27;88792;-48
2023/05/08 05:02:33;;;;;;;1.97;1.20;;;;;;;;;;5044872;27;87091;-48
2023/05/08 05:05:01;;;;;;;2.80;1.20;;;;;;;;;;5045206;27;88439;-54
2023/05/08 05:07:29;;;;;;;2.27;1.40;;;;;;;;;;5044523;27;89184;-51
2023/05/08 05:09:58;;;;;;;1.23;1.10;;;;;;;;;;5054642;27;88920;-51
2023/05/08 05:12:26;;;;;;;1.57;1.30;;;;;;;;;;5065079;27;86971;-51
2023/05/08 05:14:54;;;;;;;3.50;1.40;;;;;;;;;;5062666;27;87126;-51
2023/05/08 05:17:24;;;;;;;1.03;0.97;;;;;;;;;;5043028;27;89703;-51
2023/05/08 05:19:52;;;;;;;3.63;1.47;;;;;;;;;;5043954;27;88629;-52
2023/05/08 05:22:21;;;;;;;3.60;1.40;;;;;;;;;;5044289;27;87030;-51
2023/05/08 05:24:49;;;;;;;1.93;1.10;;;;;;;;;;5043891;27;86714;-51
2023/05/08 05:27:17;;;;;;;3.60;1.20;;;;;;;;;;5044358;27;89119;-51
2023/05/08 05:29:48;;;;;;;1.53;1.43;;;;;;;;;;5043702;27;88900;-51
2023/05/08 05:32:16;;;;;;;1.27;0.97;;;;;;;;;;5044554;27;87175;-51
2023/05/08 05:34:46;;;;;;;0.90;0.90;;;;;;;;;;5044383;28;86261;-52
2023/05/08 05:37:14;;;;;;;1.53;0.90;;;;;;;;;;5043688;27;88185;-51
2023/05/08 05:39:43;;;;;;;1.63;1.10;;;;;;;;;;5044167;28;88909;-51
2023/05/08 05:42:11;;;;;;;2.03;1.67;;;;;;;;;;5043490;27;87860;-51
2023/05/08 05:44:39;;;;;;;2.03;1.50;;;;;;;;;;5044273;27;87608;-51
2023/05/08 05:47:09;;;;;;;1.17;1.07;;;;;;;;;;5043083;27;88280;-51
2023/05/08 05:49:38;;;;;;;1.93;1.00;;;;;;;;;;5043442;27;88791;-51
2023/05/08 05:52:08;;;;;;;1.27;1.10;;;;;;;;;;5043609;27;87672;-51
2023/05/08 05:54:36;;;;;;;1.57;0.83;;;;;;;;;;5051650;27;87155;-51
2023/05/08 05:57:05;;;;;;;0.70;0.70;;;;;;;;;;5063417;27;88156;-51
2023/05/08 05:59:33;;;;;;;1.30;1.20;;;;;;;;;;5063279;27;87797;-51
2023/05/08 06:02:02;;;;;;;2.40;1.00;;;;;;;;;;5045556;27;86906;-51
2023/05/08 06:04:30;;;;;;;2.93;1.40;;;;;;;;;;5044028;27;86971;-51
2023/05/08 06:06:59;;;;;;;1.40;1.30;;;;;;;;;;5042992;27;88922;-51
2023/05/08 06:09:28;;;;;;;2.00;1.03;;;;;;;;;;5043382;28;89908;-51
2023/05/08 06:11:57;;;;;;;1.20;1.00;;;;;;;;;;5043335;27;86999;-51
2023/05/08 06:14:25;;;;;;;1.20;1.10;;;;;;;;;;5042482;28;87067;-51
2023/05/08 06:16:53;;;;;;;1.30;1.20;;;;;;;;;;5043641;27;89093;-51
2023/05/08 06:19:23;;;;;;;1.10;1.00;;;;;;;;;;5042654;27;88941;-51
2023/05/08 06:21:51;;;;;;;1.23;1.00;;;;;;;;;;5043556;27;87039;-51
2023/05/08 06:24:19;;;;;;;1.23;1.10;;;;;;;;;;5043717;27;86149;-51
2023/05/08 06:26:49;;;;;;;1.07;0.90;;;;;;;;;;5042709;27;89162;-51
2023/05/08 06:29:17;;;;;;;1.80;1.00;;;;;;;;;;5043118;27;88682;-51
2023/05/08 06:31:46;;;;;;;1.33;0.87;;;;;;;;;;5042392;27;87950;-51
2023/05/08 06:34:14;;;;;;;2.20;1.27;;;;;;;;;;5043582;27;87001;-51
2023/05/08 06:36:42;;;;;;;1.47;1.37;;;;;;;;;;5042376;28;88018;-51
2023/05/08 06:39:11;;;;;;;1.03;0.93;;;;;;;;;;5042513;27;87882;-51
2023/05/08 06:41:39;;;;;;;1.03;0.87;;;;;;;;;;5043296;27;87007;-51
2023/05/08 06:44:08;;;;;;;1.73;1.33;;;;;;;;;;5042863;28;87066;-51
2023/05/08 06:46:37;;;;;;;1.00;0.90;;;;;;;;;;5042786;27;87049;-51
2023/05/08 06:49:05;;;;;;;1.07;1.07;;;;;;;;;;5042546;27;87766;-51
2023/05/08 06:51:34;;;;;;;1.50;0.90;;;;;;;;;;5050169;27;87027;-52
2023/05/08 06:54:06;;;;;;;1.03;0.80;;;;;;;;;;5059582;27;87707;-52
2023/05/08 06:56:34;;;;;;;1.80;1.27;;;;;;;;;;5060910;27;89867;-52
2023/05/08 06:59:03;;;;;;;0.80;0.80;;;;;;;;;;5061999;27;89802;-51
2023/05/08 07:01:37;;;;;;;4.63;1.10;;;;;;;;;;5062626;27;87078;-52
2023/05/08 07:04:05;;;;;;;2.77;1.57;;;;;;;;;;5062469;27;87063;-51
2023/05/08 07:06:34;;;;;;;4.53;2.30;;;;;;;;;;5062262;27;89062;-52
2023/05/08 07:09:02;;;;;;;2.93;1.53;;;;;;;;;;5062605;27;87959;-51
2023/05/08 07:11:30;;;;;;;2.07;1.50;;;;;;;;;;5062040;27;86985;-53
2023/05/08 07:13:59;;;;;;;6.87;2.23;;;;;;;;;;5062781;27;86440;-55
2023/05/08 07:16:27;;;;;;;3.03;1.83;;;;;;;;;;5062378;27;89075;-54
2023/05/08 07:18:57;;;;;;;3.83;2.20;;;;;;;;;;5041621;28;87914;-53
2023/05/08 07:21:25;;;;;;;6.90;1.80;;;;;;;;;;5055467;27;88042;-54
2023/05/08 07:23:53;;;;;;;2.50;1.53;;;;;;;;;;5062746;27;86700;-54
2023/05/08 07:26:22;;;;;;;2.57;1.43;;;;;;;;;;5058177;27;87086;-54
2023/05/08 07:28:52;;;;;;;4.50;1.80;;;;;;;;;;5062270;27;87834;-53
2023/05/08 07:31:21;;;;;;;4.53;1.47;;;;;;;;;;5062332;27;87013;-53
2023/05/08 07:33:49;;;;;;;5.37;1.70;;;;;;;;;;5062003;27;86977;-53
2023/05/08 07:36:19;;;;;;;3.10;1.60;;;;;;;;;;5062169;27;89237;-54
2023/05/08 07:38:47;;;;;;;2.10;1.80;;;;;;;;;;5061025;27;86571;-51
2023/05/08 07:41:16;;;;;;;3.33;1.83;;;;;;;;;;5061485;27;87052;-50
2023/05/08 07:43:44;;;;;;;6.73;2.30;;;;;;;;;;5049825;27;86934;-50
2023/05/08 07:46:16;;;;;;;3.50;1.97;;;;;;;;;;5060185;27;89115;-50
2023/05/08 07:48:45;;;;;;;2.83;1.87;;;;;;;;;;5061860;27;87440;-50
2023/05/08 07:51:13;;;;;;;3.53;2.43;;;;;;;;;;5062234;27;87098;-50
2023/05/08 07:53:43;;;;;;;4.67;2.03;;;;;;;;;;5062392;27;87001;-50
2023/05/08 07:56:11;;;;;;;4.47;2.57;;;;;;;;;;5062318;27;88347;-50
2023/05/08 07:58:41;;;;;;;3.03;2.33;;;;;;;;;;5062096;27;87726;-50
2023/05/08 08:01:10;;;;;;;3.73;1.80;;;;;;;;;;5062513;27;86994;-50
2023/05/08 08:03:38;;;;;;;2.40;1.70;;;;;;;;;;5063022;27;86193;-50
2023/05/08 08:06:06;;;;;;;4.73;2.40;;;;;;;;;;5048490;27;89179;-49
2023/05/08 08:08:35;;;;;;;7.17;2.90;;;;;;;;;;5041744;27;87955;-50
2023/05/08 08:11:04;;;;;;;3.33;2.07;;;;;;;;;;5040950;27;87958;-50
2023/05/08 08:13:33;;;;;;;3.50;2.20;;;;;;;;;;5041790;27;87567;-50
2023/05/08 08:16:02;;;;;;;3.57;1.60;;;;;;;;;;5041163;27;88213;-50
2023/05/08 08:18:31;;;;;;;4.17;2.23;;;;;;;;;;5041505;27;87051;-49
2023/05/08 08:21:00;;;;;;;2.70;2.13;;;;;;;;;;5041819;28;86974;-50
2023/05/08 08:23:28;;;;;;;4.00;2.20;;;;;;;;;;5041304;27;86949;-50
2023/05/08 08:25:56;;;;;;;3.33;2.33;;;;;;;;;;5041247;28;89175;-50
2023/05/08 08:28:26;;;;;;;6.53;2.13;;;;;;;;;;5041488;28;88697;-50
2023/05/08 08:30:54;;;;;;;5.73;2.80;;;;;;;;;;5041569;27;87007;-50
2023/05/08 08:33:22;;;;;;;5.07;2.33;;;;;;;;;;5041217;27;87075;-50
2023/05/08 08:35:51;;;;;;;4.33;1.97;;;;;;;;;;5040979;27;89193;-50
2023/05/08 08:38:19;;;;;;;4.23;1.93;;;;;;;;;;5040874;27;89906;-50
2023/05/08 08:40:47;;;;;;;11.10;2.30;;;;;;;;;;5041462;27;86991;-50
2023/05/08 08:43:16;;;;;;;4.13;2.17;;;;;;;;;;5043225;27;87022;-50
2023/05/08 08:45:45;;;;;;;6.20;2.57;;;;;;;;;;5041165;27;88928;-49
2023/05/08 08:48:14;;;;;;;5.33;2.73;;;;;;;;;;5040877;28;88863;-50
2023/05/08 08:50:42;;;;;;;6.53;2.57;;;;;;;;;;5041375;28;87031;-50
2023/05/08 08:53:11;;;;;;;5.23;2.70;;;;;;;;;;5041753;27;86312;-50
2023/05/08 08:55:40;;;;;;;4.40;2.50;;;;;;;;;;5042981;28;89052;-50
2023/05/08 08:58:13;;;;;;;3.67;2.20;;;;;;;;;;5044444;28;88991;-50
2023/05/08 09:00:42;;;;;;;5.20;1.87;;;;;;;;;;5043302;27;90550;-50
2023/05/08 09:03:11;;;;;;;4.87;2.40;;;;;;;;;;5060976;27;91797;-50
2023/05/08 09:05:40;;;;;;;4.10;2.33;;;;;;;;;;5044369;27;89127;-50
2023/05/08 09:08:08;;;;;;;6.23;3.07;;;;;;;;;;5051680;27;87037;-50
2023/05/08 09:10:36;;;;;;;7.67;2.73;;;;;;;;;;5061596;27;88171;-49
2023/05/08 09:13:05;;;;;;;5.57;2.53;;;;;;;;;;5064939;27;87448;-50
2023/05/08 09:15:33;;;;;;;6.47;2.33;;;;;;;;;;5063823;27;88109;-50
2023/05/08 09:18:02;;;;;;;5.90;2.93;;;;;;;;;;5064481;27;88875;-50
2023/05/08 09:20:32;;;;;;;3.13;2.07;;;;;;;;;;5064938;27;87081;-50
2023/05/08 09:23:02;;;;;;;3.83;2.37;;;;;;;;;;5064905;27;86972;-50
2023/05/08 09:25:41;;;;;;;4.97;2.43;;;;;;;;;;5064241;27;90170;-50
2023/05/08 09:28:16;;;;;;;4.97;2.40;;;;;;;;;;5064187;27;88924;-49
2023/05/08 09:30:51;;;;;;;3.80;2.20;;;;;;;;;;5064088;27;87017;-50
2023/05/08 09:33:19;;;;;;;4.93;2.60;;;;;;;;;;5064737;27;87004;-50
2023/05/08 09:35:49;;;;;;;5.43;2.67;;;;;;;;;;5064456;27;89275;-50
2023/05/08 09:38:33;;;;;;;5.33;2.53;;;;;;;;;;5063544;27;88699;-50
2023/05/08 09:41:08;;;;;;;4.90;2.50;;;;;;;;;;5064499;27;87060;-50
2023/05/08 09:43:36;;;;;;;5.87;3.00;;;;;;;;;;5052861;27;88864;-50
2023/05/08 09:46:20;;;;;;;3.07;2.20;;;;;;;;;;5044240;27;89049;-50
2023/05/08 09:48:48;;;;;;;2.27;1.90;;;;;;;;;;5043752;27;88921;-50
2023/05/08 09:51:18;;;;;;;8.20;2.90;;;;;;;;;;5058872;27;88057;-50
2023/05/08 09:53:46;;;;;;;3.70;2.70;;;;;;;;;;5062874;27;86981;-50
2023/05/08 09:56:15;;;;;;;4.33;2.50;;;;;;;;;;5062872;27;88878;-50
2023/05/08 09:58:43;;;;;;;4.27;2.70;;;;;;;;;;5051435;27;87731;-50
2023/05/08 10:01:28;;;;;;;5.03;2.70;;;;;;;;;;5058215;27;87309;-52
2023/05/08 10:03:56;;;;;;;5.47;2.00;;;;;;;;;;5064216;27;86901;-50
2023/05/08 10:06:27;;;;;;;7.03;2.67;;;;;;;;;;5063125;27;87001;-50
2023/05/08 10:09:08;;;;;;;5.70;2.80;;;;;;;;;;5063568;27;89015;-50
2023/05/08 10:11:36;;;;;;;4.53;2.47;;;;;;;;;;5063800;27;86882;-50
2023/05/08 10:14:04;;;;;;;4.23;2.83;;;;;;;;;;5063539;27;87059;-50
2023/05/08 10:16:35;;;;;;;3.43;2.40;;;;;;;;;;5063321;27;90094;-50
2023/05/08 10:19:04;;;;;;;4.27;2.40;;;;;;;;;;5063339;27;87419;-50
2023/05/08 10:21:36;;;;;;;3.90;2.13;;;;;;;;;;5063472;27;87062;-50
2023/05/08 10:24:05;;;;;;;4.63;2.70;;;;;;;;;;5063615;27;86994;-50
2023/05/08 10:26:34;;;;;;;2.90;2.30;;;;;;;;;;5062452;27;87986;-50
2023/05/08 10:29:05;;;;;;;3.80;2.37;;;;;;;;;;5062591;27;88695;-50
2023/05/08 10:31:35;;;;;;;5.10;2.77;;;;;;;;;;5064037;27;86890;-50
2023/05/08 10:34:03;;;;;;;3.47;2.33;;;;;;;;;;5063553;27;86399;-50
2023/05/08 10:36:32;;;;;;;5.07;2.93;;;;;;;;;;5058879;27;89160;-50
2023/05/08 10:39:03;;;;;;;4.00;2.93;;;;;;;;;;5063292;27;86908;-50
2023/05/08 10:41:31;;;;;;;5.17;2.73;;;;;;;;;;5063040;27;87916;-50
2023/05/08 10:43:59;;;;;;;4.53;2.83;;;;;;;;;;5062548;27;86892;-50
2023/05/08 10:46:31;;;;;;;4.77;3.07;;;;;;;;;;5062807;27;89089;-49
2023/05/08 10:49:01;;;;;;;5.43;3.33;;;;;;;;;;5062994;27;87855;-50
2023/05/08 10:51:33;;;;;;;4.73;3.00;;;;;;;;;;5062907;27;86994;-50
2023/05/08 10:54:06;;;;;;;5.33;3.47;;;;;;;;;;5062818;27;87067;-49
2023/05/08 10:56:34;;;;;;;6.47;4.13;;;;;;;;;;5057797;27;88009;-50
2023/05/08 10:59:02;;;;;;;5.33;3.23;;;;;;;;;;5062763;27;89208;-50
2023/05/08 11:01:31;;;;;;;8.57;3.90;;;;;;;;;;5063606;27;87052;-50
2023/05/08 11:03:59;;;;;;;6.77;3.73;;;;;;;;;;5062856;27;87013;-49
2023/05/08 11:06:44;;;;;;;6.73;3.43;;;;;;;;;;5062491;27;88988;-49
2023/05/08 11:09:19;;;;;;;6.20;3.17;;;;;;;;;;5062779;27;89067;-50
2023/05/08 11:11:51;;;;;;;3.77;2.60;;;;;;;;;;5061159;27;87951;-50
2023/05/08 11:14:20;;;;;;;4.30;2.50;;;;;;;;;;5061768;27;87063;-50
2023/05/08 11:17:03;;;;;;;3.73;2.80;;;;;;;;;;5061808;27;88270;-50
2023/05/08 11:19:32;;;;;;;4.90;3.03;;;;;;;;;;5061830;27;87808;-50
2023/05/08 11:22:13;;;;;;;4.00;2.60;;;;;;;;;;5062452;27;86889;-50
2023/05/08 11:24:47;;;;;;;6.13;2.23;;;;;;;;;;5061868;27;86264;-50
2023/05/08 11:27:16;;;;;;;3.53;2.83;;;;;;;;;;5061857;27;89166;-50
2023/05/08 11:29:44;;;;;;;4.90;3.27;;;;;;;;;;5061290;27;88894;-51
2023/05/08 11:32:12;;;;;;;6.20;3.30;;;;;;;;;;5061653;27;87768;-50
2023/05/08 11:34:48;;;;;;;5.97;3.67;;;;;;;;;;5062094;27;86980;-50
2023/05/08 11:37:17;;;;;;;5.20;3.40;;;;;;;;;;5060440;27;89237;-50
2023/05/08 11:39:47;;;;;;;6.77;3.97;;;;;;;;;;5060387;27;88936;-51
2023/05/08 11:42:34;;;;;;;7.77;3.63;;;;;;;;;;5061345;27;87141;-53
2023/05/08 11:45:06;;;;;;;5.30;3.40;;;;;;;;;;5057627;27;87027;-53
2023/05/08 11:47:37;;;;;;;5.50;3.37;;;;;;;;;;5061443;27;88109;-53
2023/05/08 11:50:06;;;;;;;6.37;3.63;;;;;;;;;;5041324;27;88791;-53
2023/05/08 11:52:35;;;;;;;7.10;3.27;;;;;;;;;;5042167;27;87024;-53
2023/05/08 11:55:06;;;;;;;6.90;3.80;;;;;;;;;;5041908;28;86984;-53
2023/05/08 11:57:35;;;;;;;7.10;3.90;;;;;;;;;;5049114;27;88807;-53
2023/05/08 12:00:06;;;;;;;7.47;3.67;;;;;;;;;;5061054;27;89701;-53
2023/05/08 12:02:35;;;;;;;5.87;3.23;;;;;;;;;;5062271;27;87018;-53
2023/05/08 12:05:04;;;;;;;6.37;3.60;;;;;;;;;;5062041;27;87001;-53
2023/05/08 12:07:32;;;;;;;6.40;3.50;;;;;;;;;;5061194;27;89210;-53
2023/05/08 12:10:01;;;;;;;4.23;2.90;;;;;;;;;;5060959;27;88785;-53
2023/05/08 12:12:40;;;;;;;4.87;3.10;;;;;;;;;;5061022;27;87148;-53
2023/05/08 12:15:09;;;;;;;6.47;3.77;;;;;;;;;;5062132;27;86286;-53
2023/05/08 12:17:37;;;;;;;6.23;3.47;;;;;;;;;;5061268;27;89206;-53
2023/05/08 12:20:12;;;;;;;4.97;2.67;;;;;;;;;;5061587;27;87922;-54
2023/05/08 12:22:42;;;;;;;5.60;3.40;;;;;;;;;;5061424;27;87910;-53
2023/05/08 12:25:11;;;;;;;5.30;3.77;;;;;;;;;;5062078;27;87046;-53
2023/05/08 12:27:41;;;;;;;6.80;3.80;;;;;;;;;;5061961;27;89972;-53
2023/05/08 12:30:10;;;;;;;11.30;3.67;;;;;;;;;;5063057;27;88747;-53
2023/05/08 12:32:39;;;;;;;4.90;2.67;;;;;;;;;;5065294;27;86866;-53
2023/05/08 12:35:07;;;;;;;4.90;3.17;;;;;;;;;;5066022;27;87013;-54
2023/05/08 12:37:36;;;;;;;6.07;3.47;;;;;;;;;;5064908;27;89238;-53
2023/05/08 12:40:04;;;;;;;12.93;3.30;;;;;;;;;;5065465;27;89110;-53
2023/05/08 12:42:43;;;;;;;6.90;3.63;;;;;;;;;;5065639;27;86904;-53
2023/05/08 12:45:17;;;;;;;3.57;2.60;;;;;;;;;;5065109;27;87059;-53
2023/05/08 12:47:46;;;;;;;5.27;3.67;;;;;;;;;;5064044;27;90117;-53
2023/05/08 12:50:15;;;;;;;4.83;3.00;;;;;;;;;;5064753;27;87516;-53
2023/05/08 12:52:43;;;;;;;8.37;3.57;;;;;;;;;;5065077;27;86733;-53
2023/05/08 12:55:21;;;;;;;5.43;2.77;;;;;;;;;;5044851;28;87063;-53
2023/05/08 12:57:51;;;;;;;5.43;3.47;;;;;;;;;;5060980;27;88151;-53
2023/05/08 13:00:20;;;;;;;6.03;3.13;;;;;;;;;;5063880;27;88691;-53
2023/05/08 13:02:54;;;;;;;7.77;4.47;;;;;;;;;;5065066;27;86888;-53
2023/05/08 13:05:22;;;;;;;11.30;5.00;;;;;;;;;;5063210;27;86321;-53
2023/05/08 13:07:51;;;;;;;9.40;3.87;;;;;;;;;;5082199;27;88277;-53
2023/05/08 13:10:19;;;;;;;18.97;5.93;;;;;;;;;;5084952;27;88877;-53
2023/05/08 13:12:53;;;;;;;10.03;4.13;;;;;;;;;;5085082;27;87978;-53
2023/05/08 13:15:22;;;;;;;11.50;4.73;;;;;;;;;;5085319;27;87013;-53
2023/05/08 13:17:51;;;;;;;11.23;5.23;;;;;;;;;;5083983;27;89837;-53
2023/05/08 13:20:19;;;;;;;15.27;5.57;;;;;;;;;;5085074;27;87826;-52
2023/05/08 13:22:47;;;;;;;16.20;5.33;;;;;;;;;;5085276;27;86960;-53
2023/05/08 13:25:16;;;;;;;12.00;5.33;;;;;;;;;;5085085;27;86858;-53
2023/05/08 13:27:44;;;;;;;11.20;4.93;;;;;;;;;;5085181;27;89192;-52
2023/05/08 13:30:14;;;;;;;17.63;5.13;;;;;;;;;;5084794;27;89018;-53
2023/05/08 13:32:43;;;;;;;8.60;4.70;;;;;;;;;;5085718;27;87019;-53
2023/05/08 13:35:11;;;;;;;11.50;4.97;;;;;;;;;;5084835;27;87475;-53
2023/05/08 13:37:39;;;;;;;11.73;5.40;;;;;;;;;;5083994;27;88931;-53
2023/05/08 13:40:08;;;;;;;10.17;4.97;;;;;;;;;;5084443;27;89926;-53
2023/05/08 13:42:36;;;;;;;11.23;5.43;;;;;;;;;;5084869;27;87073;-53
2023/05/08 13:45:05;;;;;;;8.97;4.90;;;;;;;;;;5085332;27;87097;-53
2023/05/08 13:47:34;;;;;;;12.17;5.77;;;;;;;;;;5084850;27;88936;-52
2023/05/08 13:50:03;;;;;;;16.30;5.80;;;;;;;;;;5084894;27;88825;-53
2023/05/08 13:52:31;;;;;;;18.20;5.67;;;;;;;;;;5084813;27;86860;-53
2023/05/08 13:54:59;;;;;;;20.83;5.57;;;;;;;;;;5084948;27;86359;-52
2023/05/08 13:57:28;;;;;;;11.87;5.43;;;;;;;;;;5084218;27;88099;-53
2023/05/08 13:59:56;;;;;;;10.77;4.70;;;;;;;;;;5083697;27;87031;-53
2023/05/08 14:02:24;;;;;;;13.13;5.37;;;;;;;;;;5069498;27;88066;-53
2023/05/08 14:04:54;;;;;;;11.07;6.00;;;;;;;;;;5059295;27;87082;-53
2023/05/08 14:07:22;;;;;;;13.13;6.30;;;;;;;;;;5063819;27;89184;-53
2023/05/08 14:09:51;;;;;;;12.13;5.30;;;;;;;;;;5063928;27;88831;-52
2023/05/08 14:12:19;;;;;;;15.67;6.97;;;;;;;;;;5064383;27;86967;-53
2023/05/08 14:14:48;;;;;;;14.03;5.87;;;;;;;;;;5064313;27;86883;-52
2023/05/08 14:17:16;;;;;;;14.97;5.30;;;;;;;;;;5064176;27;89026;-52
2023/05/08 14:19:44;;;;;;;19.47;5.73;;;;;;;;;;5063221;27;87762;-51
2023/05/08 14:22:14;;;;;;;18.10;6.40;;;;;;;;;;5063543;27;86843;-50
2023/05/08 14:24:43;;;;;;;14.93;5.90;;;;;;;;;;5063430;27;87031;-52
2023/05/08 14:27:11;;;;;;;18.43;6.43;;;;;;;;;;5062352;27;90838;-47
2023/05/08 14:29:40;;;;;;;18.63;6.53;;;;;;;;;;5062166;27;88776;-47
2023/05/08 14:32:09;;;;;;;17.50;6.00;;;;;;;;;;5063387;27;87168;-46
2023/05/08 14:34:38;;;;;;;14.50;5.80;;;;;;;;;;5063559;27;87023;-47
2023/05/08 14:37:06;;;;;;;15.70;6.40;;;;;;;;;;5062988;27;88115;-47
2023/05/08 14:39:36;;;;;;;13.27;5.60;;;;;;;;;;5062667;27;87839;-48
2023/05/08 14:42:04;;;;;;;16.53;6.40;;;;;;;;;;5062707;27;88594;-47
2023/05/08 14:44:49;;;;;;;17.23;6.33;;;;;;;;;;5063568;27;86260;-46
2023/05/08 14:47:18;;;;;;;12.30;4.90;;;;;;;;;;5072963;27;89121;-46
2023/05/08 14:49:46;;;;;;;15.27;5.87;;;;;;;;;;5062346;27;88990;-46
2023/05/08 14:52:14;;;;;;;18.03;6.30;;;;;;;;;;5061213;27;87867;-47
2023/05/08 14:54:46;;;;;;;10.17;5.00;;;;;;;;;;5060565;27;87513;-47